Auburn, WA

6:35 PM PDT on August 20, 2014 (GMT -0700)
Celery Ave | Change Station
CLOSE
Current Station
Personal Weather Station
Location: Algona, WA
Elevation: 66 ft
Nearby Weather Stations

Elev 66 ft 47.29 °N, 122.25 °W | Updated 11 minutes ago

Scattered Clouds
Scattered Clouds
71.8 °F
Feels Like 76 °F
N
1.0
Wind Variable Wind from WNW
Gusts 4.0 mph

Today
High -- | Low -- °F
--% Chance of Precip.
Yesterday
High -- | Low -- °F
Precip. -- in
6:12 AM 8:11 PM
Waning Crescent, 18% visible
Pressure 30.00 in
Visibility 10.0 miles
Clouds Few 3500 ft
Scattered Clouds 7000 ft
Scattered Clouds 25000 ft
Heat Index 76 °F
Dew Point 56 °F
Humidity 58%
Rainfall 0.00 in
Snow Depth Not available.
UV 1 out of 12
Pollen 2.70 out of 12
Air Quality Not available.
Flu Activity Not available.
METAR KSEA 210053Z 23008KT 200V270 10SM FEW035 SCT070 SCT250 21/12 A2999 RMK AO2 SLP159 T02110117

More Conditions Fewer Conditions

Pressure 30.00 in
Visibility 10.0 miles
Clouds Few 3500 ft
Scattered Clouds 7000 ft
Scattered Clouds 25000 ft
Heat Index 76 °F
Dew Point 56 °F
Humidity 58%
Rainfall 0.00 in
Snow Depth Not available.
UV 1 out of 12
Pollen 2.70 out of 12
Air Quality Not available.
Flu Activity Not available.
METAR KSEA 210053Z 23008KT 200V270 10SM FEW035 SCT070 SCT250 21/12 A2999 RMK AO2 SLP159 T02110117

More Conditions Fewer Conditions

10-Day Weather Forecast

Almanac

Astronomy

Aug. 20, 2014 Rise Set
Actual Time 6:12 AM PDT 8:11 PM PDT
Civil Twilight 5:39 AM PDT 8:44 PM PDT
Nautical Twilight 4:58 AM PDT 9:24 PM PDT
Astronomical Twilight 4:13 AM PDT 10:09 PM PDT
Moon 1:49 AM PDT (8/20) 5:07 PM PDT (8/20)
Length of Visible Light 15h 05m
Length of Day
13h 59m
Tomorrow will be 3m 8s shorter.
Waning Crescent, 18% of the Moon is Illuminated
Today
Waning Crescent
Aug 25
New
Sep 2
First Quarter
Sep 8
Full
Sep 15
Last Quarter

Today's Extremes

State Highs State Lows

Community

WunderPhotos

Upload Photos

1,745,859 photos uploaded!

WunderBlogs® & News

Nearby

Air Quality

  Air Quality AQ Index Pollutant
Wednesday Good
OZONE
Wednesday Good
PM2.5
Thursday Good
OZONE
Thursday Good
PM2.5
Friday Good
OZONE
Friday Good
PM2.5
Saturday Good
OZONE
Saturday Good
PM2.5

Snow Depth

Station Depth Elevation
Burnt Mountain 1 in 4200 ft
Meadows Pass 0 in 3500 ft
Alpine Meadows 0 in 3500 ft
Dungeness 5 in 4100 ft
Pigtail Peak 0 in 5900 ft

Earthquake Activity

City Distance Mag. Time & Date
No recent earthquake activity has been reported nearby.
Minimum magnitude displayed is 2.5.

Coastal Water Temperatures

Place Temperature
Port Townsend, WA 55.9 °F
Seattle, WA 55.9 °F
Friday Harbor, WA 54.0 °F
Tacoma, WA 55.9 °F

Nearby Weather Stations